Terminal Aerodrome Forecast
Issued by NWS

Home | Current Version | Previous Version | Text Only | Print | Product List | Glossary On
Versions: 1 2 3 4 5 6 7 8 9 10 11 12
513
FTUS42 KTAE 282324
TAFDHN
TAF
KDHN 282324Z 2900/2924 12005KT P6SM SCT040 BKN100
     FM291000 10005KT P6SM VCSH BKN015
     FM291500 14006KT P6SM SHRA BKN025
     FM291800 20006KT 5SM TSRA BKN040CB=

USA.gov is the U.S. government's official web portal to all federal, state and local government web resources and services.